sensor_id;sensor_type;location;lat;lon;timestamp;pressure;altitude;pressure_sealevel;temperature;humidity
68506;BME280;55509;50.680;17.942;2022-09-09T00:00:17;99318.45;;;16.97;93.45
68506;BME280;55509;50.680;17.942;2022-09-09T00:03:48;99320.84;;;16.89;93.50
68506;BME280;55509;50.680;17.942;2022-09-09T00:10:32;99320.60;;;16.75;93.22
68506;BME280;55509;50.680;17.942;2022-09-09T00:13:49;99315.01;;;16.71;93.19
68506;BME280;55509;50.680;17.942;2022-09-09T00:17:01;99319.31;;;16.67;93.18
68506;BME280;55509;50.680;17.942;2022-09-09T00:20:19;99316.65;;;16.64;93.33
68506;BME280;55509;50.680;17.942;2022-09-09T00:23:30;99317.30;;;16.62;93.37
68506;BME280;55509;50.680;17.942;2022-09-09T00:26:44;99312.91;;;16.59;93.14
68506;BME280;55509;50.680;17.942;2022-09-09T00:33:23;99312.11;;;16.45;93.30
68506;BME280;55509;50.680;17.942;2022-09-09T00:36:29;99311.98;;;16.41;93.18
68506;BME280;55509;50.680;17.942;2022-09-09T00:39:38;99311.34;;;16.39;93.30
68506;BME280;55509;50.680;17.942;2022-09-09T00:42:43;99310.46;;;16.36;93.32
68506;BME280;55509;50.680;17.942;2022-09-09T00:49:02;99310.64;;;16.30;93.05
68506;BME280;55509;50.680;17.942;2022-09-09T00:52:47;99311.81;;;16.25;93.12
68506;BME280;55509;50.680;17.942;2022-09-09T00:56:16;99314.34;;;16.18;93.17
68506;BME280;55509;50.680;17.942;2022-09-09T00:59:48;99318.61;;;16.11;93.04
68506;BME280;55509;50.680;17.942;2022-09-09T01:06:16;99331.59;;;16.05;92.96
68506;BME280;55509;50.680;17.942;2022-09-09T01:09:27;99330.30;;;16.02;93.02
68506;BME280;55509;50.680;17.942;2022-09-09T01:12:42;99328.98;;;15.98;92.76
68506;BME280;55509;50.680;17.942;2022-09-09T01:15:47;99331.79;;;15.95;93.08
68506;BME280;55509;50.680;17.942;2022-09-09T01:18:55;99336.20;;;15.91;93.12
68506;BME280;55509;50.680;17.942;2022-09-09T01:22:35;99334.82;;;15.87;93.07
68506;BME280;55509;50.680;17.942;2022-09-09T01:26:22;99336.86;;;15.85;93.10
68506;BME280;55509;50.680;17.942;2022-09-09T01:29:29;99344.17;;;15.85;92.91
68506;BME280;55509;50.680;17.942;2022-09-09T01:32:42;99347.20;;;15.81;93.19
68506;BME280;55509;50.680;17.942;2022-09-09T01:35:58;99348.80;;;15.81;93.26
68506;BME280;55509;50.680;17.942;2022-09-09T01:39:05;99350.63;;;15.80;93.24
68506;BME280;55509;50.680;17.942;2022-09-09T01:42:12;99351.38;;;15.80;93.27
68506;BME280;55509;50.680;17.942;2022-09-09T01:45:27;99349.17;;;15.78;93.42
68506;BME280;55509;50.680;17.942;2022-09-09T01:48:29;99349.56;;;15.74;93.25
68506;BME280;55509;50.680;17.942;2022-09-09T01:51:41;99352.91;;;15.71;93.25
68506;BME280;55509;50.680;17.942;2022-09-09T01:54:54;99354.27;;;15.69;93.13
68506;BME280;55509;50.680;17.942;2022-09-09T01:58:58;99359.45;;;15.68;93.32
68506;BME280;55509;50.680;17.942;2022-09-09T02:02:13;99366.98;;;15.67;93.34
68506;BME280;55509;50.680;17.942;2022-09-09T02:05:38;99364.35;;;15.66;93.42
68506;BME280;55509;50.680;17.942;2022-09-09T02:08:47;99370.76;;;15.66;93.71
68506;BME280;55509;50.680;17.942;2022-09-09T02:12:05;99371.98;;;15.62;93.64
68506;BME280;55509;50.680;17.942;2022-09-09T02:15:21;99374.48;;;15.59;93.44
68506;BME280;55509;50.680;17.942;2022-09-09T02:18:32;99372.55;;;15.55;93.42
68506;BME280;55509;50.680;17.942;2022-09-09T02:21:38;99373.89;;;15.53;93.38
68506;BME280;55509;50.680;17.942;2022-09-09T02:24:44;99376.45;;;15.52;93.49
68506;BME280;55509;50.680;17.942;2022-09-09T02:27:50;99380.00;;;15.52;93.24
68506;BME280;55509;50.680;17.942;2022-09-09T02:30:53;99377.21;;;15.51;93.37
68506;BME280;55509;50.680;17.942;2022-09-09T02:34:01;99385.10;;;15.49;93.78
68506;BME280;55509;50.680;17.942;2022-09-09T02:37:06;99383.80;;;15.47;93.92
68506;BME280;55509;50.680;17.942;2022-09-09T02:40:11;99387.09;;;15.45;93.66
68506;BME280;55509;50.680;17.942;2022-09-09T02:43:20;99388.21;;;15.44;93.45
68506;BME280;55509;50.680;17.942;2022-09-09T02:46:47;99385.61;;;15.43;93.22
68506;BME280;55509;50.680;17.942;2022-09-09T02:50:19;99385.14;;;15.42;93.19
68506;BME280;55509;50.680;17.942;2022-09-09T02:53:34;99385.10;;;15.42;93.31
68506;BME280;55509;50.680;17.942;2022-09-09T02:56:49;99389.81;;;15.40;93.41
68506;BME280;55509;50.680;17.942;2022-09-09T02:59:57;99396.05;;;15.36;92.99
68506;BME280;55509;50.680;17.942;2022-09-09T03:02:59;99398.54;;;15.32;93.35
68506;BME280;55509;50.680;17.942;2022-09-09T03:06:01;99400.77;;;15.31;93.16
68506;BME280;55509;50.680;17.942;2022-09-09T03:09:02;99399.80;;;15.29;93.17
68506;BME280;55509;50.680;17.942;2022-09-09T03:12:04;99399.69;;;15.27;92.98
68506;BME280;55509;50.680;17.942;2022-09-09T03:15:07;99402.37;;;15.27;93.28
68506;BME280;55509;50.680;17.942;2022-09-09T03:18:14;99397.29;;;15.26;93.44
68506;BME280;55509;50.680;17.942;2022-09-09T03:21:18;99403.23;;;15.24;93.15
68506;BME280;55509;50.680;17.942;2022-09-09T03:24:20;99405.10;;;15.22;93.17
68506;BME280;55509;50.680;17.942;2022-09-09T03:27:22;99406.94;;;15.17;93.03
68506;BME280;55509;50.680;17.942;2022-09-09T03:30:24;99410.00;;;15.13;93.41
68506;BME280;55509;50.680;17.942;2022-09-09T03:33:27;99409.87;;;15.08;93.29
68506;BME280;55509;50.680;17.942;2022-09-09T03:36:30;99413.35;;;15.06;93.15
68506;BME280;55509;50.680;17.942;2022-09-09T03:39:31;99410.40;;;15.05;93.27
68506;BME280;55509;50.680;17.942;2022-09-09T03:42:33;99413.46;;;15.04;93.15
68506;BME280;55509;50.680;17.942;2022-09-09T03:45:38;99422.90;;;15.03;93.22
68506;BME280;55509;50.680;17.942;2022-09-09T03:48:40;99425.35;;;15.00;93.40
68506;BME280;55509;50.680;17.942;2022-09-09T03:51:41;99427.59;;;14.97;93.34
68506;BME280;55509;50.680;17.942;2022-09-09T03:54:53;99430.38;;;14.95;93.32
68506;BME280;55509;50.680;17.942;2022-09-09T03:57:58;99427.67;;;14.92;93.18
68506;BME280;55509;50.680;17.942;2022-09-09T04:01:13;99428.14;;;14.90;93.52
68506;BME280;55509;50.680;17.942;2022-09-09T04:04:15;99430.52;;;14.89;93.49
68506;BME280;55509;50.680;17.942;2022-09-09T04:07:20;99428.59;;;14.88;93.58
68506;BME280;55509;50.680;17.942;2022-09-09T04:10:27;99427.20;;;14.88;93.67
68506;BME280;55509;50.680;17.942;2022-09-09T04:13:30;99430.72;;;14.84;93.47
68506;BME280;55509;50.680;17.942;2022-09-09T04:16:32;99432.92;;;14.83;93.49
68506;BME280;55509;50.680;17.942;2022-09-09T04:19:42;99435.42;;;14.82;93.49
68506;BME280;55509;50.680;17.942;2022-09-09T04:22:43;99433.85;;;14.86;93.27
68506;BME280;55509;50.680;17.942;2022-09-09T04:25:46;99432.33;;;14.88;93.05
68506;BME280;55509;50.680;17.942;2022-09-09T04:28:54;99436.11;;;14.90;93.21
68506;BME280;55509;50.680;17.942;2022-09-09T04:32:00;99436.30;;;14.93;92.97
68506;BME280;55509;50.680;17.942;2022-09-09T04:35:03;99436.35;;;14.96;92.34
68506;BME280;55509;50.680;17.942;2022-09-09T04:38:14;99442.58;;;14.99;92.50
68506;BME280;55509;50.680;17.942;2022-09-09T04:41:16;99444.78;;;15.01;92.71
68506;BME280;55509;50.680;17.942;2022-09-09T04:44:20;99449.89;;;15.01;92.75
68506;BME280;55509;50.680;17.942;2022-09-09T04:47:22;99449.02;;;15.01;92.27
68506;BME280;55509;50.680;17.942;2022-09-09T04:50:23;99452.54;;;15.02;91.95
68506;BME280;55509;50.680;17.942;2022-09-09T04:53:26;99451.10;;;15.05;91.86
68506;BME280;55509;50.680;17.942;2022-09-09T04:56:31;99452.27;;;15.10;92.09
68506;BME280;55509;50.680;17.942;2022-09-09T04:59:33;99457.04;;;15.18;92.25
68506;BME280;55509;50.680;17.942;2022-09-09T05:02:37;99454.82;;;15.27;92.67
68506;BME280;55509;50.680;17.942;2022-09-09T05:05:40;99454.98;;;15.37;92.34
68506;BME280;55509;50.680;17.942;2022-09-09T05:08:44;99450.46;;;15.46;92.12
68506;BME280;55509;50.680;17.942;2022-09-09T05:11:49;99453.87;;;15.59;92.28
68506;BME280;55509;50.680;17.942;2022-09-09T05:14:54;99455.33;;;15.72;91.60
68506;BME280;55509;50.680;17.942;2022-09-09T05:18:04;99455.91;;;15.84;91.14
68506;BME280;55509;50.680;17.942;2022-09-09T05:21:10;99457.81;;;15.99;91.00
68506;BME280;55509;50.680;17.942;2022-09-09T05:24:17;99455.51;;;16.09;90.52
68506;BME280;55509;50.680;17.942;2022-09-09T05:27:19;99458.39;;;16.18;89.82
68506;BME280;55509;50.680;17.942;2022-09-09T05:30:23;99455.90;;;16.28;89.64
68506;BME280;55509;50.680;17.942;2022-09-09T05:33:27;99454.17;;;16.59;88.70
68506;BME280;55509;50.680;17.942;2022-09-09T05:36:31;99456.92;;;17.22;86.61
68506;BME280;55509;50.680;17.942;2022-09-09T05:39:34;99457.73;;;18.26;84.88
68506;BME280;55509;50.680;17.942;2022-09-09T05:42:38;99453.83;;;19.22;81.83
68506;BME280;55509;50.680;17.942;2022-09-09T05:45:40;99451.46;;;19.80;75.63
68506;BME280;55509;50.680;17.942;2022-09-09T05:48:46;99448.88;;;20.33;74.76
68506;BME280;55509;50.680;17.942;2022-09-09T05:51:51;99453.55;;;20.91;72.29
68506;BME280;55509;50.680;17.942;2022-09-09T05:54:53;99453.76;;;21.48;71.91
68506;BME280;55509;50.680;17.942;2022-09-09T05:57:56;99449.73;;;22.11;70.21
68506;BME280;55509;50.680;17.942;2022-09-09T06:01:05;99446.88;;;22.78;69.26
68506;BME280;55509;50.680;17.942;2022-09-09T06:04:08;99448.48;;;23.43;66.20
68506;BME280;55509;50.680;17.942;2022-09-09T06:07:10;99444.38;;;24.03;64.97
68506;BME280;55509;50.680;17.942;2022-09-09T06:10:12;99442.16;;;24.61;61.46
68506;BME280;55509;50.680;17.942;2022-09-09T06:13:16;99441.56;;;25.07;59.71
68506;BME280;55509;50.680;17.942;2022-09-09T06:16:19;99437.36;;;25.66;58.32
68506;BME280;55509;50.680;17.942;2022-09-09T06:19:21;99437.83;;;26.29;56.22
68506;BME280;55509;50.680;17.942;2022-09-09T06:22:23;99434.09;;;26.85;53.73
68506;BME280;55509;50.680;17.942;2022-09-09T06:25:24;99429.84;;;27.39;51.73
68506;BME280;55509;50.680;17.942;2022-09-09T06:28:26;99425.98;;;27.93;51.06
68506;BME280;55509;50.680;17.942;2022-09-09T06:31:29;99421.66;;;28.60;49.14
68506;BME280;55509;50.680;17.942;2022-09-09T06:34:31;99422.21;;;29.00;45.83
68506;BME280;55509;50.680;17.942;2022-09-09T06:37:33;99424.70;;;29.34;44.49
68506;BME280;55509;50.680;17.942;2022-09-09T06:40:34;99419.86;;;29.66;43.56
68506;BME280;55509;50.680;17.942;2022-09-09T06:43:36;99423.20;;;30.15;43.44
68506;BME280;55509;50.680;17.942;2022-09-09T06:46:38;99423.60;;;30.70;42.05
68506;BME280;55509;50.680;17.942;2022-09-09T06:49:43;99422.22;;;31.24;41.28
68506;BME280;55509;50.680;17.942;2022-09-09T06:52:46;99421.23;;;31.76;38.80
68506;BME280;55509;50.680;17.942;2022-09-09T06:55:49;99422.20;;;31.91;37.33
68506;BME280;55509;50.680;17.942;2022-09-09T06:58:52;99420.05;;;32.25;37.73
68506;BME280;55509;50.680;17.942;2022-09-09T07:01:54;99417.39;;;32.92;36.72
68506;BME280;55509;50.680;17.942;2022-09-09T07:04:56;99422.54;;;33.53;36.07
68506;BME280;55509;50.680;17.942;2022-09-09T07:08:02;99426.38;;;34.10;33.53
68506;BME280;55509;50.680;17.942;2022-09-09T07:11:06;99433.34;;;34.40;33.07
68506;BME280;55509;50.680;17.942;2022-09-09T07:14:08;99433.13;;;34.77;32.94
68506;BME280;55509;50.680;17.942;2022-09-09T07:17:10;99436.33;;;35.21;31.06
68506;BME280;55509;50.680;17.942;2022-09-09T07:20:12;99436.09;;;35.45;30.70
68506;BME280;55509;50.680;17.942;2022-09-09T07:23:15;99439.64;;;35.51;30.07
68506;BME280;55509;50.680;17.942;2022-09-09T07:26:20;99436.41;;;35.33;30.11
68506;BME280;55509;50.680;17.942;2022-09-09T07:29:24;99434.36;;;35.45;31.08
68506;BME280;55509;50.680;17.942;2022-09-09T07:32:28;99437.58;;;35.46;29.73
68506;BME280;55509;50.680;17.942;2022-09-09T07:35:34;99439.20;;;35.91;29.12
68506;BME280;55509;50.680;17.942;2022-09-09T07:38:40;99443.06;;;36.47;28.06
68506;BME280;55509;50.680;17.942;2022-09-09T07:41:51;99441.44;;;36.90;26.63
68506;BME280;55509;50.680;17.942;2022-09-09T07:44:53;99442.13;;;36.77;27.24
68506;BME280;55509;50.680;17.942;2022-09-09T07:47:56;99440.96;;;37.20;26.52
68506;BME280;55509;50.680;17.942;2022-09-09T07:51:09;99443.41;;;36.33;26.59
68506;BME280;55509;50.680;17.942;2022-09-09T07:54:14;99453.77;;;34.50;28.17
68506;BME280;55509;50.680;17.942;2022-09-09T07:57:17;99454.27;;;33.47;29.29
68506;BME280;55509;50.680;17.942;2022-09-09T08:00:18;99453.16;;;34.37;28.72
68506;BME280;55509;50.680;17.942;2022-09-09T08:03:25;99453.17;;;35.34;27.31
68506;BME280;55509;50.680;17.942;2022-09-09T08:06:35;99453.09;;;36.12;26.68
68506;BME280;55509;50.680;17.942;2022-09-09T08:09:40;99451.34;;;36.30;26.60
68506;BME280;55509;50.680;17.942;2022-09-09T08:12:42;99452.40;;;37.31;25.33
68506;BME280;55509;50.680;17.942;2022-09-09T08:15:46;99455.52;;;38.03;24.39
68506;BME280;55509;50.680;17.942;2022-09-09T08:18:52;99457.54;;;37.42;24.85
68506;BME280;55509;50.680;17.942;2022-09-09T08:21:56;99461.72;;;35.75;25.81
68506;BME280;55509;50.680;17.942;2022-09-09T08:25:00;99457.98;;;34.84;27.16
68506;BME280;55509;50.680;17.942;2022-09-09T08:28:03;99464.89;;;33.26;28.64
68506;BME280;55509;50.680;17.942;2022-09-09T08:31:11;99470.02;;;31.85;30.79
68506;BME280;55509;50.680;17.942;2022-09-09T08:34:13;99473.70;;;30.68;32.20
68506;BME280;55509;50.680;17.942;2022-09-09T08:37:16;99473.69;;;30.00;33.24
68506;BME280;55509;50.680;17.942;2022-09-09T08:40:22;99473.32;;;29.50;34.40
68506;BME280;55509;50.680;17.942;2022-09-09T08:43:28;99477.04;;;28.97;35.90
68506;BME280;55509;50.680;17.942;2022-09-09T08:49:45;99475.88;;;29.08;35.15
68506;BME280;55509;50.680;17.942;2022-09-09T08:53:02;99472.92;;;30.54;33.15
68506;BME280;55509;50.680;17.942;2022-09-09T08:56:12;99472.71;;;31.99;31.95
68506;BME280;55509;50.680;17.942;2022-09-09T08:59:17;99466.87;;;31.91;30.99
68506;BME280;55509;50.680;17.942;2022-09-09T09:02:42;99467.00;;;31.17;31.34
68506;BME280;55509;50.680;17.942;2022-09-09T09:05:59;99463.99;;;30.65;32.05
68506;BME280;55509;50.680;17.942;2022-09-09T09:12:20;99460.40;;;34.48;27.44
68506;BME280;55509;50.680;17.942;2022-09-09T09:15:29;99459.45;;;35.30;26.13
68506;BME280;55509;50.680;17.942;2022-09-09T09:18:32;99457.98;;;35.52;26.77
68506;BME280;55509;50.680;17.942;2022-09-09T09:21:47;99457.15;;;35.66;26.53
68506;BME280;55509;50.680;17.942;2022-09-09T09:24:55;99456.04;;;35.74;25.79
68506;BME280;55509;50.680;17.942;2022-09-09T09:31:13;99453.73;;;37.77;23.20
68506;BME280;55509;50.680;17.942;2022-09-09T09:34:15;99445.48;;;38.89;21.48
68506;BME280;55509;50.680;17.942;2022-09-09T09:49:18;99444.38;;;42.74;16.82
68506;BME280;55509;50.680;17.942;2022-09-09T09:52:26;99443.54;;;43.19;15.74
68506;BME280;55509;50.680;17.942;2022-09-09T09:59:36;99448.00;;;44.02;16.38
68506;BME280;55509;50.680;17.942;2022-09-09T10:02:45;99446.73;;;44.72;15.90
68506;BME280;55509;50.680;17.942;2022-09-09T10:05:50;99450.17;;;43.65;15.82
68506;BME280;55509;50.680;17.942;2022-09-09T10:08:57;99452.41;;;41.75;16.57
68506;BME280;55509;50.680;17.942;2022-09-09T10:12:23;99453.67;;;40.40;17.14
68506;BME280;55509;50.680;17.942;2022-09-09T10:15:48;99456.55;;;39.30;18.60
68506;BME280;55509;50.680;17.942;2022-09-09T10:19:10;99460.95;;;38.40;19.79
68506;BME280;55509;50.680;17.942;2022-09-09T10:22:57;99462.68;;;38.06;19.79
68506;BME280;55509;50.680;17.942;2022-09-09T10:36:25;99455.00;;;38.04;19.94
68506;BME280;55509;50.680;17.942;2022-09-09T10:39:39;99465.15;;;37.39;20.84
68506;BME280;55509;50.680;17.942;2022-09-09T10:42:42;99464.52;;;36.74;21.15
68506;BME280;55509;50.680;17.942;2022-09-09T10:55:39;99469.36;;;32.26;25.81
68506;BME280;55509;50.680;17.942;2022-09-09T11:02:21;99462.87;;;30.68;28.99
68506;BME280;55509;50.680;17.942;2022-09-09T11:05:39;99470.22;;;29.90;30.13
68506;BME280;55509;50.680;17.942;2022-09-09T11:08:43;99471.73;;;29.16;31.14
68506;BME280;55509;50.680;17.942;2022-09-09T11:11:55;99471.88;;;28.91;31.83
68506;BME280;55509;50.680;17.942;2022-09-09T11:15:59;99471.47;;;28.60;32.41
68506;BME280;55509;50.680;17.942;2022-09-09T11:18:38;99466.10;;;28.31;33.19
68506;BME280;55509;50.680;17.942;2022-09-09T11:21:47;99470.51;;;28.29;33.76
68506;BME280;55509;50.680;17.942;2022-09-09T11:24:54;99472.24;;;28.56;33.19
68506;BME280;55509;50.680;17.942;2022-09-09T11:28:22;99470.30;;;29.26;32.25
68506;BME280;55509;50.680;17.942;2022-09-09T11:38:45;99456.08;;;34.76;24.19
68506;BME280;55509;50.680;17.942;2022-09-09T11:41:52;99459.03;;;35.49;22.98
68506;BME280;55509;50.680;17.942;2022-09-09T11:44:55;99454.92;;;35.60;22.26
68506;BME280;55509;50.680;17.942;2022-09-09T11:47:59;99455.98;;;35.80;22.07
68506;BME280;55509;50.680;17.942;2022-09-09T11:54:29;99451.55;;;36.74;21.05
68506;BME280;55509;50.680;17.942;2022-09-09T11:57:38;99448.52;;;37.69;20.01
68506;BME280;55509;50.680;17.942;2022-09-09T12:00:47;99447.84;;;38.35;19.10
68506;BME280;55509;50.680;17.942;2022-09-09T12:03:54;99451.73;;;37.83;18.91
68506;BME280;55509;50.680;17.942;2022-09-09T12:10:34;99447.39;;;38.21;20.13
68506;BME280;55509;50.680;17.942;2022-09-09T12:13:39;99453.79;;;38.65;19.66
68506;BME280;55509;50.680;17.942;2022-09-09T12:16:44;99461.16;;;38.74;19.25
68506;BME280;55509;50.680;17.942;2022-09-09T12:20:03;99460.35;;;38.71;18.86
68506;BME280;55509;50.680;17.942;2022-09-09T12:33:12;99456.98;;;38.90;18.35
68506;BME280;55509;50.680;17.942;2022-09-09T12:36:28;99450.09;;;38.18;19.10
68506;BME280;55509;50.680;17.942;2022-09-09T12:39:38;99450.46;;;38.50;18.91
68506;BME280;55509;50.680;17.942;2022-09-09T12:42:49;99445.22;;;38.46;18.23
68506;BME280;55509;50.680;17.942;2022-09-09T12:46:06;99442.05;;;37.53;19.03
68506;BME280;55509;50.680;17.942;2022-09-09T12:49:31;99442.46;;;37.83;20.26
68506;BME280;55509;50.680;17.942;2022-09-09T12:52:36;99445.54;;;37.94;19.66
68506;BME280;55509;50.680;17.942;2022-09-09T12:55:55;99435.58;;;38.54;19.65
68506;BME280;55509;50.680;17.942;2022-09-09T12:58:58;99431.33;;;39.03;18.99
68506;BME280;55509;50.680;17.942;2022-09-09T13:02:00;99427.23;;;38.83;19.55
68506;BME280;55509;50.680;17.942;2022-09-09T13:05:22;99429.83;;;38.24;19.40
68506;BME280;55509;50.680;17.942;2022-09-09T13:08:29;99434.41;;;37.55;19.39
68506;BME280;55509;50.680;17.942;2022-09-09T13:11:38;99430.67;;;37.27;20.34
68506;BME280;55509;50.680;17.942;2022-09-09T13:14:47;99425.16;;;37.24;20.27
68506;BME280;55509;50.680;17.942;2022-09-09T13:17:59;99420.95;;;37.06;20.39
68506;BME280;55509;50.680;17.942;2022-09-09T13:21:11;99417.30;;;36.37;21.32
68506;BME280;55509;50.680;17.942;2022-09-09T13:27:35;99411.38;;;35.72;22.35
68506;BME280;55509;50.680;17.942;2022-09-09T13:30:40;99409.63;;;35.56;22.62
68506;BME280;55509;50.680;17.942;2022-09-09T13:33:44;99409.17;;;35.36;22.22
68506;BME280;55509;50.680;17.942;2022-09-09T13:36:47;99399.65;;;35.12;22.64
68506;BME280;55509;50.680;17.942;2022-09-09T13:39:54;99396.77;;;34.53;23.15
68506;BME280;55509;50.680;17.942;2022-09-09T13:42:57;99392.61;;;33.59;24.03
68506;BME280;55509;50.680;17.942;2022-09-09T13:46:05;99394.59;;;32.79;25.14
68506;BME280;55509;50.680;17.942;2022-09-09T13:49:30;99393.80;;;32.31;25.57
68506;BME280;55509;50.680;17.942;2022-09-09T13:52:34;99391.11;;;32.12;25.52
68506;BME280;55509;50.680;17.942;2022-09-09T13:55:37;99391.52;;;31.65;26.24
68506;BME280;55509;50.680;17.942;2022-09-09T13:58:40;99390.37;;;31.22;26.55
68506;BME280;55509;50.680;17.942;2022-09-09T14:01:42;99388.26;;;30.82;27.13
68506;BME280;55509;50.680;17.942;2022-09-09T14:04:44;99391.50;;;30.42;27.78
68506;BME280;55509;50.680;17.942;2022-09-09T14:07:46;99389.91;;;29.81;29.07
68506;BME280;55509;50.680;17.942;2022-09-09T14:10:48;99390.63;;;29.10;30.37
68506;BME280;55509;50.680;17.942;2022-09-09T14:13:49;99396.79;;;28.73;31.06
68506;BME280;55509;50.680;17.942;2022-09-09T14:16:51;99401.35;;;28.56;31.51
68506;BME280;55509;50.680;17.942;2022-09-09T14:19:55;99401.70;;;28.41;31.82
68506;BME280;55509;50.680;17.942;2022-09-09T14:22:57;99399.45;;;28.34;32.34
68506;BME280;55509;50.680;17.942;2022-09-09T14:25:59;99402.00;;;28.21;33.16
68506;BME280;55509;50.680;17.942;2022-09-09T14:29:00;99402.77;;;28.03;34.37
68506;BME280;55509;50.680;17.942;2022-09-09T14:32:02;99401.98;;;28.00;34.84
68506;BME280;55509;50.680;17.942;2022-09-09T14:35:04;99410.02;;;28.16;34.86
68506;BME280;55509;50.680;17.942;2022-09-09T14:38:06;99412.05;;;28.35;34.58
68506;BME280;55509;50.680;17.942;2022-09-09T14:41:14;99410.02;;;28.49;34.60
68506;BME280;55509;50.680;17.942;2022-09-09T14:44:18;99411.41;;;28.38;34.97
68506;BME280;55509;50.680;17.942;2022-09-09T14:47:23;99416.45;;;27.97;35.92
68506;BME280;55509;50.680;17.942;2022-09-09T14:50:24;99414.77;;;27.34;37.11
68506;BME280;55509;50.680;17.942;2022-09-09T14:53:26;99411.77;;;26.70;38.23
68506;BME280;55509;50.680;17.942;2022-09-09T14:56:30;99410.02;;;26.28;39.35
68506;BME280;55509;50.680;17.942;2022-09-09T14:59:32;99415.05;;;25.85;40.60
68506;BME280;55509;50.680;17.942;2022-09-09T15:02:36;99411.77;;;25.32;41.66
68506;BME280;55509;50.680;17.942;2022-09-09T15:05:38;99410.63;;;24.93;42.74
68506;BME280;55509;50.680;17.942;2022-09-09T15:08:44;99406.20;;;24.59;43.85
68506;BME280;55509;50.680;17.942;2022-09-09T15:11:47;99408.33;;;24.41;44.31
68506;BME280;55509;50.680;17.942;2022-09-09T15:14:48;99403.70;;;24.35;44.66
68506;BME280;55509;50.680;17.942;2022-09-09T15:17:51;99405.79;;;24.32;44.84
68506;BME280;55509;50.680;17.942;2022-09-09T15:20:53;99406.43;;;24.24;45.10
68506;BME280;55509;50.680;17.942;2022-09-09T15:23:58;99411.09;;;24.14;45.55
68506;BME280;55509;50.680;17.942;2022-09-09T15:27:01;99416.76;;;24.03;45.97
68506;BME280;55509;50.680;17.942;2022-09-09T15:30:04;99421.52;;;23.89;46.26
68506;BME280;55509;50.680;17.942;2022-09-09T15:33:08;99426.80;;;23.76;46.94
68506;BME280;55509;50.680;17.942;2022-09-09T15:36:21;99426.40;;;23.64;46.95
68506;BME280;55509;50.680;17.942;2022-09-09T15:39:23;99415.89;;;23.49;47.24
68506;BME280;55509;50.680;17.942;2022-09-09T15:42:25;99416.95;;;23.36;47.76
68506;BME280;55509;50.680;17.942;2022-09-09T15:45:26;99414.35;;;23.20;48.29
68506;BME280;55509;50.680;17.942;2022-09-09T15:48:34;99410.93;;;23.05;48.62
68506;BME280;55509;50.680;17.942;2022-09-09T15:51:42;99408.95;;;22.95;49.16
68506;BME280;55509;50.680;17.942;2022-09-09T15:54:44;99406.77;;;22.84;49.29
68506;BME280;55509;50.680;17.942;2022-09-09T15:57:46;99407.06;;;22.70;49.52
68506;BME280;55509;50.680;17.942;2022-09-09T16:00:48;99404.64;;;22.58;49.63
68506;BME280;55509;50.680;17.942;2022-09-09T16:03:50;99400.48;;;22.47;50.12
68506;BME280;55509;50.680;17.942;2022-09-09T16:06:54;99401.83;;;22.37;50.66
68506;BME280;55509;50.680;17.942;2022-09-09T16:09:56;99393.40;;;22.28;51.10
68506;BME280;55509;50.680;17.942;2022-09-09T16:12:58;99392.28;;;22.20;51.58
68506;BME280;55509;50.680;17.942;2022-09-09T16:16:00;99392.23;;;22.09;52.09
68506;BME280;55509;50.680;17.942;2022-09-09T16:19:07;99392.36;;;22.01;52.53
68506;BME280;55509;50.680;17.942;2022-09-09T16:22:11;99396.36;;;21.94;52.28
68506;BME280;55509;50.680;17.942;2022-09-09T16:25:17;99404.86;;;21.88;52.73
68506;BME280;55509;50.680;17.942;2022-09-09T16:28:19;99407.39;;;21.79;53.29
68506;BME280;55509;50.680;17.942;2022-09-09T16:31:25;99406.95;;;21.70;53.59
68506;BME280;55509;50.680;17.942;2022-09-09T16:34:32;99406.49;;;21.65;53.41
68506;BME280;55509;50.680;17.942;2022-09-09T16:37:35;99406.53;;;21.57;53.69
68506;BME280;55509;50.680;17.942;2022-09-09T16:40:37;99404.38;;;21.48;53.68
68506;BME280;55509;50.680;17.942;2022-09-09T16:43:42;99404.55;;;21.41;54.05
68506;BME280;55509;50.680;17.942;2022-09-09T16:46:47;99408.48;;;21.34;54.41
68506;BME280;55509;50.680;17.942;2022-09-09T16:49:56;99409.95;;;21.27;54.32
68506;BME280;55509;50.680;17.942;2022-09-09T16:52:58;99415.23;;;21.21;54.66
68506;BME280;55509;50.680;17.942;2022-09-09T16:56:07;99415.48;;;21.15;55.05
68506;BME280;55509;50.680;17.942;2022-09-09T16:59:15;99414.66;;;21.10;55.23
68506;BME280;55509;50.680;17.942;2022-09-09T17:02:17;99416.56;;;21.03;55.35
68506;BME280;55509;50.680;17.942;2022-09-09T17:05:19;99413.04;;;20.98;55.44
68506;BME280;55509;50.680;17.942;2022-09-09T17:08:21;99411.77;;;20.91;56.33
68506;BME280;55509;50.680;17.942;2022-09-09T17:11:25;99410.91;;;20.81;56.34
68506;BME280;55509;50.680;17.942;2022-09-09T17:14:29;99406.83;;;20.73;56.87
68506;BME280;55509;50.680;17.942;2022-09-09T17:17:32;99407.46;;;20.67;56.75
68506;BME280;55509;50.680;17.942;2022-09-09T17:20:43;99407.27;;;20.62;56.83
68506;BME280;55509;50.680;17.942;2022-09-09T17:23:46;99408.06;;;20.59;56.86
68506;BME280;55509;50.680;17.942;2022-09-09T17:26:48;99410.39;;;20.54;57.24
68506;BME280;55509;50.680;17.942;2022-09-09T17:29:57;99411.08;;;20.49;57.47
68506;BME280;55509;50.680;17.942;2022-09-09T17:33:00;99414.73;;;20.46;57.67
68506;BME280;55509;50.680;17.942;2022-09-09T17:36:16;99418.36;;;20.42;57.79
68506;BME280;55509;50.680;17.942;2022-09-09T17:39:18;99419.05;;;20.38;58.00
68506;BME280;55509;50.680;17.942;2022-09-09T17:42:19;99421.39;;;20.33;58.59
68506;BME280;55509;50.680;17.942;2022-09-09T17:45:21;99420.52;;;20.27;58.94
68506;BME280;55509;50.680;17.942;2022-09-09T17:48:24;99421.35;;;20.21;59.36